Time;durP1;ratioP1;P1;durP2;ratioP2;P2;SDS_P1;SDS_P2;PMS_P1;PMS_P2;Temp;Humidity;BMP_temperature;BMP_pressure;BME280_temperature;BME280_humidity;BME280_pressure;Samples;Min_cycle;Max_cycle;Signal;HPM_P1;HPM_P2
2023/07/06 00:01:02;;;;;;;11.40;5.93;;;11.00;99.90;;;;;;5135239;27;20087;-24
2023/07/06 00:03:28;;;;;;;9.82;5.65;;;11.00;99.90;;;;;;5135191;27;20047;-24
2023/07/06 00:05:54;;;;;;;11.18;6.20;;;11.00;99.90;;;;;;5135044;27;20070;-24
2023/07/06 00:08:20;;;;;;;7.82;5.63;;;11.10;99.90;;;;;;5117035;27;20054;-24
2023/07/06 00:10:50;;;;;;;15.27;6.97;;;11.10;99.90;;;;;;5117002;27;20047;-24
2023/07/06 00:13:17;;;;;;;12.07;6.47;;;11.00;99.90;;;;;;5116777;27;20079;-24
2023/07/06 00:15:43;;;;;;;10.65;6.55;;;11.00;99.90;;;;;;5134993;27;20130;-24
2023/07/06 00:18:10;;;;;;;10.27;6.28;;;11.00;99.90;;;;;;5134942;27;20039;-24
2023/07/06 00:20:37;;;;;;;11.50;6.38;;;11.00;99.90;;;;;;5134919;27;20133;-24
2023/07/06 00:23:09;;;;;;;13.02;6.60;;;11.00;99.90;;;;;;5116239;27;20039;-24
2023/07/06 00:25:36;;;;;;;12.05;6.88;;;11.00;99.90;;;;;;5134976;27;20125;-24
2023/07/06 00:28:03;;;;;;;10.45;7.05;;;11.00;99.90;;;;;;5135650;27;20392;-24
2023/07/06 00:31:21;;;;;;;12.57;7.43;;;11.00;99.90;;;;;;5117015;27;20058;-24
2023/07/06 00:33:18;;;;;;;13.35;7.38;;;11.00;99.90;;;;;;5119871;27;20420;-24
2023/07/06 00:35:44;;;;;;;11.20;7.57;;;10.90;99.90;;;;;;5134718;27;20050;-24
2023/07/06 00:38:15;;;;;;;14.15;7.78;;;11.00;99.90;;;;;;5116168;27;20051;-24
2023/07/06 00:40:46;;;;;;;15.32;7.40;;;10.90;99.90;;;;;;5116645;28;20057;-24
2023/07/06 00:43:15;;;;;;;12.70;7.72;;;10.90;99.90;;;;;;5135329;28;20061;-24
2023/07/06 00:45:44;;;;;;;14.23;8.43;;;10.80;99.90;;;;;;5116451;28;20127;-24
2023/07/06 00:48:34;;;;;;;12.90;7.82;;;10.80;99.90;;;;;;5135208;28;20039;-24
2023/07/06 00:51:12;;;;;;;12.45;8.20;;;10.80;99.90;;;;;;5116343;28;20047;-24
2023/07/06 00:53:41;;;;;;;11.95;8.00;;;10.70;99.90;;;;;;5135427;28;20146;-24
2023/07/06 00:56:11;;;;;;;17.60;8.65;;;10.70;99.90;;;;;;5116431;28;20059;-24
2023/07/06 00:58:48;;;;;;;14.75;8.65;;;10.70;99.90;;;;;;5134416;28;20075;-24
2023/07/06 01:01:20;;;;;;;14.38;9.38;;;10.70;99.90;;;;;;5134531;28;20118;-24
2023/07/06 01:03:52;;;;;;;14.35;8.57;;;10.60;99.90;;;;;;5134531;28;20054;-24
2023/07/06 01:06:24;;;;;;;13.77;8.18;;;10.60;99.90;;;;;;5112146;28;20060;-24
2023/07/06 01:08:52;;;;;;;12.68;8.50;;;10.60;99.90;;;;;;5113902;28;20047;-24
2023/07/06 01:11:18;;;;;;;18.00;9.88;;;10.60;99.90;;;;;;5114717;28;20185;-24
2023/07/06 01:13:51;;;;;;;13.20;9.02;;;10.60;99.90;;;;;;5113852;28;20055;-24
2023/07/06 01:16:43;;;;;;;14.23;8.80;;;10.50;99.90;;;;;;5113827;28;20047;-24
2023/07/06 01:19:33;;;;;;;12.40;8.77;;;10.50;99.90;;;;;;5112497;28;20040;-24
2023/07/06 01:22:26;;;;;;;15.75;9.80;;;10.60;99.90;;;;;;5113098;28;20078;-24
2023/07/06 01:25:34;;;;;;;17.70;10.45;;;10.60;99.90;;;;;;5114441;28;20048;-24
2023/07/06 01:28:18;;;;;;;16.42;9.18;;;10.50;99.90;;;;;;5068201;28;20052;-24
2023/07/06 01:31:18;;;;;;;16.67;9.93;;;10.60;99.90;;;;;;5114014;28;20523;-24
2023/07/06 01:33:54;;;;;;;13.48;8.82;;;10.60;99.90;;;;;;5086664;28;20516;-24
2023/07/06 01:36:38;;;;;;;17.90;11.25;;;10.60;99.90;;;;;;5113940;28;20044;-24
2023/07/06 01:39:21;;;;;;;15.50;9.10;;;10.50;99.90;;;;;;5113879;28;20044;-24
2023/07/06 01:42:09;;;;;;;15.27;9.20;;;10.60;99.90;;;;;;5114435;28;20069;-24
2023/07/06 01:44:37;;;;;;;15.55;9.40;;;10.60;99.90;;;;;;5113513;28;20492;-24
2023/07/06 01:47:03;;;;;;;14.32;9.23;;;10.70;99.90;;;;;;5113564;28;20499;-24
2023/07/06 01:49:30;;;;;;;17.88;10.43;;;10.70;99.90;;;;;;5113243;28;20443;-24
2023/07/06 01:52:12;;;;;;;14.05;9.55;;;10.70;99.90;;;;;;5117002;28;20058;-24
2023/07/06 01:54:44;;;;;;;18.33;9.77;;;10.80;99.90;;;;;;5116514;28;20048;-24
2023/07/06 01:57:27;;;;;;;18.27;10.63;;;10.80;99.90;;;;;;5116406;28;20047;-24
2023/07/06 01:59:55;;;;;;;17.85;11.27;;;10.90;99.90;;;;;;5116764;28;20056;-24
2023/07/06 02:02:22;;;;;;;16.17;10.10;;;11.00;99.90;;;;;;5116991;28;20055;-24
2023/07/06 02:04:49;;;;;;;17.20;10.80;;;10.90;99.90;;;;;;5117781;28;20044;-24
2023/07/06 02:07:16;;;;;;;16.17;11.82;;;10.90;99.90;;;;;;5132510;27;20492;-24
2023/07/06 02:09:43;;;;;;;16.95;10.70;;;10.90;99.90;;;;;;5137429;27;20465;-24
2023/07/06 02:12:11;;;;;;;18.88;10.60;;;11.00;99.90;;;;;;5138205;27;20426;-24
2023/07/06 02:14:37;;;;;;;15.20;10.25;;;11.00;99.90;;;;;;5102370;27;20523;-24
2023/07/06 02:17:03;;;;;;;15.45;10.57;;;11.10;99.90;;;;;;5137719;27;20103;-24
2023/07/06 02:19:28;;;;;;;17.92;10.98;;;11.20;99.90;;;;;;5136847;27;20043;-24
2023/07/06 02:21:54;;;;;;;18.50;11.07;;;11.20;99.90;;;;;;5119926;27;20043;-24
2023/07/06 02:24:20;;;;;;;18.05;11.93;;;11.30;99.90;;;;;;5137934;27;20046;-24
2023/07/06 02:26:46;;;;;;;14.73;10.27;;;11.40;99.90;;;;;;5137024;27;20043;-24
2023/07/06 02:29:14;;;;;;;16.88;9.93;;;11.40;99.90;;;;;;5137037;27;20143;-24
2023/07/06 02:31:40;;;;;;;13.93;10.27;;;11.40;99.90;;;;;;5136915;27;20132;-24
2023/07/06 02:34:06;;;;;;;18.42;11.43;;;11.50;99.90;;;;;;5136891;27;20078;-24
2023/07/06 02:36:32;;;;;;;16.17;10.82;;;11.40;99.90;;;;;;5136901;27;20039;-24
2023/07/06 02:38:58;;;;;;;15.48;10.52;;;11.50;99.90;;;;;;5136758;27;20051;-24
2023/07/06 02:41:24;;;;;;;14.23;10.48;;;11.40;99.90;;;;;;5101382;27;20059;-24
2023/07/06 02:43:50;;;;;;;15.13;11.18;;;11.40;99.90;;;;;;5137069;27;20089;-24
2023/07/06 02:46:19;;;;;;;20.13;11.02;;;11.30;99.90;;;;;;5136675;27;20057;-24
2023/07/06 02:48:46;;;;;;;16.08;11.05;;;11.30;99.90;;;;;;5136996;27;20047;-24
2023/07/06 02:51:13;;;;;;;13.23;10.38;;;11.20;99.90;;;;;;5136620;27;20047;-24
2023/07/06 02:53:38;;;;;;;15.13;11.38;;;11.10;99.90;;;;;;5136599;27;20079;-24
2023/07/06 02:56:04;;;;;;;15.77;10.63;;;11.00;99.90;;;;;;5137064;27;20500;-24
2023/07/06 02:58:30;;;;;;;18.55;11.38;;;11.00;99.90;;;;;;5136385;27;20092;-24
2023/07/06 03:00:56;;;;;;;17.85;11.60;;;10.90;99.90;;;;;;5137082;27;20043;-24
2023/07/06 03:03:26;;;;;;;16.58;11.25;;;10.80;99.90;;;;;;5136341;27;20484;-24
2023/07/06 03:05:52;;;;;;;17.00;11.73;;;10.80;99.90;;;;;;5118582;27;20047;-24
2023/07/06 03:08:17;;;;;;;15.20;11.70;;;10.80;99.90;;;;;;5119015;27;20058;-24
2023/07/06 03:10:47;;;;;;;18.77;12.77;;;10.80;99.90;;;;;;5118120;27;20511;-24
2023/07/06 03:13:15;;;;;;;22.73;12.27;;;10.70;99.90;;;;;;5136234;27;20489;-24
2023/07/06 03:15:41;;;;;;;20.63;13.82;;;10.70;99.90;;;;;;5136103;27;20047;-24
2023/07/06 03:18:08;;;;;;;25.60;13.00;;;10.70;99.90;;;;;;5135901;27;20043;-24
2023/07/06 03:20:37;;;;;;;20.38;12.55;;;10.60;99.90;;;;;;5136045;27;20043;-24
2023/07/06 03:23:03;;;;;;;18.88;12.70;;;10.60;99.90;;;;;;5117829;27;20047;-24
2023/07/06 03:25:29;;;;;;;20.38;12.20;;;10.60;99.90;;;;;;5117612;27;20049;-24
2023/07/06 03:27:56;;;;;;;18.60;11.73;;;10.50;99.90;;;;;;5118612;27;20043;-24
2023/07/06 03:30:29;;;;;;;26.67;12.55;;;10.40;99.90;;;;;;5135896;27;20043;-24
2023/07/06 03:32:55;;;;;;;19.42;12.32;;;10.50;99.90;;;;;;5135725;27;20084;-24
2023/07/06 03:35:22;;;;;;;21.85;13.07;;;10.50;99.90;;;;;;5135712;27;20047;-24
2023/07/06 03:37:48;;;;;;;22.42;12.35;;;10.50;99.90;;;;;;5135590;27;20039;-24
2023/07/06 03:40:14;;;;;;;23.50;14.15;;;10.50;99.90;;;;;;5135660;27;20094;-24
2023/07/06 03:42:43;;;;;;;21.63;13.43;;;10.50;99.90;;;;;;5135598;27;20053;-24
2023/07/06 03:45:10;;;;;;;20.98;13.80;;;10.50;99.90;;;;;;5135603;27;20057;-24
2023/07/06 03:47:42;;;;;;;28.30;16.25;;;10.50;99.90;;;;;;5117800;27;20047;-24
2023/07/06 03:50:09;;;;;;;24.70;15.00;;;10.50;99.90;;;;;;5117695;27;20499;-24
2023/07/06 03:52:37;;;;;;;19.83;14.40;;;10.60;99.90;;;;;;5136245;27;20078;-24
2023/07/06 03:55:05;;;;;;;23.05;15.57;;;10.60;99.90;;;;;;5117277;27;20050;-24
2023/07/06 03:57:32;;;;;;;25.42;15.98;;;10.70;99.90;;;;;;5135209;27;20132;-24
2023/07/06 03:59:58;;;;;;;27.45;15.70;;;10.70;99.90;;;;;;5117100;27;20043;-24
2023/07/06 04:02:24;;;;;;;29.48;18.00;;;10.80;99.90;;;;;;5135569;27;20046;-24
2023/07/06 04:04:51;;;;;;;29.90;16.40;;;10.90;99.90;;;;;;5135127;27;20039;-24
2023/07/06 04:07:19;;;;;;;24.08;15.60;;;11.10;99.90;;;;;;5135136;27;20498;-24
2023/07/06 04:09:44;;;;;;;25.70;15.98;;;11.20;99.90;;;;;;5117862;27;20084;-24
2023/07/06 04:12:13;;;;;;;22.27;14.23;;;11.20;99.90;;;;;;5116742;27;20074;-24
2023/07/06 04:14:39;;;;;;;28.95;14.82;;;11.50;99.90;;;;;;5116286;27;20047;-24
2023/07/06 04:17:07;;;;;;;22.88;14.63;;;11.60;99.90;;;;;;5135049;27;20039;-24
2023/07/06 04:19:34;;;;;;;23.33;14.23;;;11.60;99.90;;;;;;5116853;27;20058;-24
2023/07/06 04:22:03;;;;;;;22.58;14.77;;;11.70;99.90;;;;;;5116930;27;20039;-24
2023/07/06 04:24:31;;;;;;;23.50;12.88;;;11.80;99.90;;;;;;5135422;27;20054;-24
2023/07/06 04:27:01;;;;;;;24.20;13.38;;;11.80;99.90;;;;;;5135192;27;20380;-24
2023/07/06 04:29:29;;;;;;;19.58;13.38;;;12.00;99.90;;;;;;5100653;28;20481;-24
2023/07/06 04:31:56;;;;;;;24.30;14.07;;;12.10;99.90;;;;;;5134734;27;20054;-24
2023/07/06 04:34:25;;;;;;;26.92;14.13;;;12.10;99.90;;;;;;5134785;27;20050;-24
2023/07/06 04:36:51;;;;;;;24.23;14.02;;;12.10;99.90;;;;;;5134823;27;20120;-24
2023/07/06 04:39:17;;;;;;;21.77;13.27;;;12.20;99.90;;;;;;5116587;27;20464;-24
2023/07/06 04:41:43;;;;;;;25.70;13.70;;;12.20;99.90;;;;;;5134694;27;20092;-25
2023/07/06 04:44:10;;;;;;;21.70;12.98;;;12.10;99.90;;;;;;5117411;28;20043;-24
2023/07/06 04:46:37;;;;;;;20.10;13.88;;;12.10;99.90;;;;;;5135207;28;20089;-24
2023/07/06 04:49:03;;;;;;;24.40;13.80;;;12.10;99.90;;;;;;5134676;28;20507;-25
2023/07/06 04:51:29;;;;;;;23.50;13.15;;;12.00;99.90;;;;;;5134680;28;20113;-24
2023/07/06 04:53:54;;;;;;;27.20;14.23;;;12.10;99.90;;;;;;5134542;28;20043;-24
2023/07/06 04:56:21;;;;;;;28.15;12.48;;;12.10;99.90;;;;;;5116444;28;20048;-24
2023/07/06 04:58:47;;;;;;;26.23;12.95;;;12.30;99.90;;;;;;5134456;28;20043;-25
2023/07/06 05:01:14;;;;;;;21.23;12.55;;;12.40;99.90;;;;;;5134482;28;20140;-24
2023/07/06 05:03:41;;;;;;;19.95;13.43;;;12.50;99.90;;;;;;5134483;28;20058;-24
2023/07/06 05:06:12;;;;;;;26.73;12.70;;;12.50;99.90;;;;;;5134849;28;20055;-24
2023/07/06 05:08:45;;;;;;;17.80;11.30;;;12.60;99.90;;;;;;5134542;28;20107;-25
2023/07/06 05:11:10;;;;;;;20.25;11.68;;;12.70;99.90;;;;;;5116932;28;20073;-24
2023/07/06 05:13:37;;;;;;;19.55;12.10;;;12.80;99.90;;;;;;5117097;28;20047;-24
2023/07/06 05:16:03;;;;;;;25.42;13.45;;;12.90;99.90;;;;;;5115911;28;20522;-25
2023/07/06 05:18:29;;;;;;;19.77;11.77;;;13.00;99.90;;;;;;5116065;28;20047;-25
2023/07/06 05:20:57;;;;;;;21.70;12.23;;;13.10;99.90;;;;;;5134284;28;20062;-24
2023/07/06 05:23:28;;;;;;;22.88;11.95;;;13.40;99.90;;;;;;5134306;28;20106;-25
2023/07/06 05:25:56;;;;;;;20.80;13.00;;;13.60;99.90;;;;;;5119207;27;20055;-24
2023/07/06 05:28:22;;;;;;;19.92;11.95;;;14.00;99.90;;;;;;5121020;27;20068;-24
2023/07/06 05:30:49;;;;;;;18.38;11.07;;;14.40;99.90;;;;;;5138787;27;20057;-24
2023/07/06 05:33:15;;;;;;;20.98;11.60;;;14.40;99.90;;;;;;5138086;27;20086;-24
2023/07/06 05:35:42;;;;;;;21.90;11.55;;;14.50;99.90;;;;;;5120308;27;20082;-25
2023/07/06 05:38:10;;;;;;;24.38;11.77;;;14.70;99.90;;;;;;5137996;27;20076;-25
2023/07/06 05:40:38;;;;;;;27.00;12.07;;;15.60;99.90;;;;;;5120782;27;20047;-24
2023/07/06 05:43:03;;;;;;;19.08;10.23;;;16.00;99.90;;;;;;5137948;27;20493;-24
2023/07/06 05:45:29;;;;;;;18.83;11.45;;;16.40;99.90;;;;;;5120284;27;20043;-24
2023/07/06 05:47:55;;;;;;;20.13;11.00;;;16.60;99.90;;;;;;5137876;27;20069;-24
2023/07/06 05:50:20;;;;;;;18.17;10.45;;;16.80;99.90;;;;;;5137803;27;20043;-24
2023/07/06 05:52:46;;;;;;;19.95;11.63;;;17.10;99.90;;;;;;5137703;27;20054;-24
2023/07/06 05:55:12;;;;;;;15.15;11.15;;;17.20;99.90;;;;;;5137751;27;20047;-24
2023/07/06 05:57:38;;;;;;;20.05;11.70;;;17.50;99.90;;;;;;5119323;27;20046;-25
2023/07/06 06:00:09;;;;;;;22.00;10.38;;;17.70;99.90;;;;;;5119545;27;20057;-25
2023/07/06 06:02:37;;;;;;;22.67;9.93;;;18.00;99.90;;;;;;5138466;27;20069;-25
2023/07/06 06:05:04;;;;;;;23.63;12.00;;;17.90;1.00;;;;;;5119128;27;20131;-25
2023/07/06 06:07:31;;;;;;;16.90;10.30;;;17.80;1.00;;;;;;5137273;27;20090;-24
2023/07/06 06:09:57;;;;;;;22.80;10.27;;;17.90;99.90;;;;;;5137301;27;20061;-25
2023/07/06 06:12:23;;;;;;;15.07;9.68;;;17.90;99.90;;;;;;5137259;27;20104;-25
2023/07/06 06:14:52;;;;;;;20.65;10.52;;;17.90;99.90;;;;;;5137349;27;20043;-24
2023/07/06 06:17:19;;;;;;;16.77;9.20;;;18.20;99.90;;;;;;5119107;27;20051;-25
2023/07/06 06:19:45;;;;;;;19.73;10.02;;;18.40;1.00;;;;;;5119067;27;20043;-25
2023/07/06 06:22:13;;;;;;;19.45;9.45;;;18.70;99.90;;;;;;5102349;27;20047;-25
2023/07/06 06:24:39;;;;;;;22.75;9.90;;;19.00;26.10;;;;;;5137095;27;20485;-24
2023/07/06 06:27:05;;;;;;;21.55;11.00;;;19.00;1.00;;;;;;5137059;27;20050;-24
2023/07/06 06:29:32;;;;;;;16.73;9.05;;;19.20;1.00;;;;;;5137583;27;20031;-24
2023/07/06 06:31:59;;;;;;;25.65;10.38;;;19.70;1.00;;;;;;5136875;27;20090;-24
2023/07/06 06:34:25;;;;;;;20.63;8.43;;;19.70;99.90;;;;;;5118856;27;20434;-25
2023/07/06 06:36:51;;;;;;;16.25;8.77;;;19.70;99.90;;;;;;5137016;27;20050;-25
2023/07/06 06:39:18;;;;;;;20.85;8.30;;;19.60;99.90;;;;;;5136782;27;20187;-25
2023/07/06 06:41:46;;;;;;;18.77;7.90;;;19.70;99.90;;;;;;5137254;27;20043;-25
2023/07/06 06:44:12;;;;;;;23.05;8.85;;;19.90;8.90;;;;;;5136777;27;20365;-26
2023/07/06 06:46:38;;;;;;;18.67;9.32;;;20.20;1.00;;;;;;5136701;27;20039;-25
2023/07/06 06:49:04;;;;;;;21.42;8.25;;;19.80;1.00;;;;;;5136660;27;20046;-25
2023/07/06 06:51:30;;;;;;;16.42;8.52;;;19.30;99.90;;;;;;5136926;27;20043;-25
2023/07/06 06:53:56;;;;;;;23.00;9.02;;;19.10;99.90;;;;;;5136564;27;20047;-25
2023/07/06 06:56:22;;;;;;;16.88;7.13;;;19.40;1.00;;;;;;5136526;27;20085;-25
2023/07/06 06:58:48;;;;;;;17.17;7.00;;;20.10;99.90;;;;;;5137241;27;20050;-25
2023/07/06 07:01:15;;;;;;;17.20;7.50;;;20.00;1.00;;;;;;5136746;27;20411;-25
2023/07/06 07:03:40;;;;;;;15.32;6.82;;;19.80;17.80;;;;;;5136328;27;20101;-25
2023/07/06 07:06:11;;;;;;;16.73;7.65;;;20.10;97.40;;;;;;5136674;27;20094;-25
2023/07/06 07:08:45;;;;;;;15.50;7.05;;;20.60;1.00;;;;;;5136263;27;20044;-25
2023/07/06 07:11:12;;;;;;;14.95;5.68;;;21.00;99.90;;;;;;5136868;27;20043;-27
2023/07/06 07:13:40;;;;;;;12.93;5.35;;;21.50;1.00;;;;;;5101384;27;20103;-26
2023/07/06 07:16:11;;;;;;;14.13;4.97;;;21.40;97.00;;;;;;5118837;27;20051;-26
2023/07/06 07:18:38;;;;;;;15.85;6.18;;;21.50;99.90;;;;;;5118530;27;20396;-26
2023/07/06 07:21:07;;;;;;;16.67;6.78;;;21.50;1.00;;;;;;5117927;27;20047;-26
2023/07/06 07:23:43;;;;;;;16.08;5.55;;;21.60;1.00;;;;;;5100827;27;20126;-26
2023/07/06 07:26:12;;;;;;;9.77;4.38;;;21.60;99.90;;;;;;5136510;27;20039;-26
2023/07/06 07:28:38;;;;;;;14.38;3.75;;;21.60;27.50;;;;;;5135837;27;20039;-26
2023/07/06 07:31:07;;;;;;;13.32;4.72;;;21.30;99.90;;;;;;5135828;27;20043;-26
2023/07/06 07:33:34;;;;;;;12.63;3.45;;;20.70;99.90;;;;;;5135334;27;20484;-26
2023/07/06 07:36:02;;;;;;;11.25;3.30;;;20.60;99.90;;;;;;5135696;27;20043;-26
2023/07/06 07:38:28;;;;;;;8.82;2.85;;;20.90;13.10;;;;;;5136163;27;20079;-26
2023/07/06 07:40:56;;;;;;;6.78;2.03;;;21.00;99.90;;;;;;5135318;27;20400;-26
2023/07/06 07:43:26;;;;;;;3.22;1.02;;;20.60;99.90;;;;;;5136395;27;20109;-26
2023/07/06 07:45:55;;;;;;;6.95;1.58;;;20.20;1.00;;;;;;5100449;27;20055;-26
2023/07/06 07:48:23;;;;;;;7.10;1.98;;;19.40;99.90;;;;;;5134630;27;20050;-27
2023/07/06 07:50:56;;;;;;;3.53;1.27;;;19.90;99.90;;;;;;5135433;27;20058;-26
2023/07/06 07:53:25;;;;;;;;;;;20.60;1.00;;;;;;5117946;27;20086;-26
2023/07/06 07:55:53;;;;;;;7.43;1.63;;;20.70;1.00;;;;;;5135412;27;19923;-26
2023/07/06 07:58:19;;;;;;;5.93;1.60;;;20.80;99.90;;;;;;5117866;27;20042;-26
2023/07/06 08:00:58;;;;;;;6.05;1.90;;;21.10;99.90;;;;;;5135466;27;20533;-26
2023/07/06 08:03:24;;;;;;;6.63;1.50;;;21.30;1.00;;;;;;5135299;27;20047;-26
2023/07/06 08:05:54;;;;;;;3.10;1.00;;;21.10;1.00;;;;;;5135013;27;20126;-26
2023/07/06 08:08:22;;;;;;;5.53;1.13;;;20.40;99.90;;;;;;5135149;27;20499;-26
2023/07/06 08:10:49;;;;;;;3.67;1.20;;;20.10;99.90;;;;;;5135167;27;20104;-25
2023/07/06 08:13:16;;;;;;;3.65;1.55;;;20.20;1.00;;;;;;5135134;27;20097;-26
2023/07/06 08:15:44;;;;;;;5.78;1.35;;;19.80;75.70;;;;;;5116931;27;20054;-26
2023/07/06 08:18:10;;;;;;;5.95;1.90;;;19.50;99.90;;;;;;5134938;27;20087;-26
2023/07/06 08:20:37;;;;;;;4.55;1.33;;;19.70;1.00;;;;;;5116845;27;20051;-26
2023/07/06 08:23:06;;;;;;;7.18;1.90;;;19.70;99.90;;;;;;5134919;27;20162;-26
2023/07/06 08:25:40;;;;;;;4.90;1.98;;;19.40;99.90;;;;;;5135181;27;20050;-25
2023/07/06 08:28:07;;;;;;;6.40;2.25;;;19.10;99.90;;;;;;5117045;27;20078;-25
2023/07/06 08:30:34;;;;;;;5.38;1.95;;;18.90;99.90;;;;;;5134494;27;20374;-25
2023/07/06 08:33:00;;;;;;;3.15;1.33;;;18.70;99.90;;;;;;5116587;28;20062;-26
2023/07/06 08:35:28;;;;;;;6.15;1.92;;;18.50;55.30;;;;;;5134902;27;20561;-25
2023/07/06 08:37:54;;;;;;;7.50;2.45;;;18.40;99.90;;;;;;5117251;28;20051;-25
2023/07/06 08:40:25;;;;;;;7.57;2.00;;;18.40;1.00;;;;;;5117020;27;20099;-25
2023/07/06 08:42:53;;;;;;;6.60;1.52;;;18.40;99.90;;;;;;5117184;28;20045;-25
2023/07/06 08:45:25;;;;;;;6.15;2.30;;;18.40;99.90;;;;;;5134699;28;20043;-25
2023/07/06 08:47:51;;;;;;;6.05;1.63;;;18.30;1.00;;;;;;5134959;28;20046;-25
2023/07/06 08:50:26;;;;;;;7.15;2.10;;;18.20;99.90;;;;;;5134591;28;20043;-25
2023/07/06 08:52:53;;;;;;;3.90;1.48;;;18.10;1.00;;;;;;5134611;28;20047;-25
2023/07/06 08:55:19;;;;;;;5.40;1.65;;;18.20;99.90;;;;;;5099827;28;20467;-25
2023/07/06 08:57:46;;;;;;;9.13;1.90;;;18.30;53.20;;;;;;5134511;28;20389;-26
2023/07/06 09:00:25;;;;;;;4.38;1.70;;;18.70;99.90;;;;;;5119153;27;20039;-25
2023/07/06 09:02:57;;;;;;;8.35;2.25;;;19.00;86.40;;;;;;5121486;27;20063;-25
2023/07/06 09:05:31;;;;;;;5.18;2.35;;;19.00;1.00;;;;;;5138753;27;20043;-26
2023/07/06 09:07:57;;;;;;;7.15;1.88;;;19.10;1.00;;;;;;5116497;28;20094;-25
2023/07/06 09:10:26;;;;;;;6.15;2.30;;;18.90;1.00;;;;;;5117102;28;20043;-26
2023/07/06 09:13:11;;;;;;;8.10;2.60;;;18.90;1.00;;;;;;5100569;28;20461;-26
2023/07/06 09:15:38;;;;;;;7.57;2.55;;;19.00;99.90;;;;;;5118016;28;20054;-25
2023/07/06 09:18:04;;;;;;;8.68;1.70;;;19.10;23.00;;;;;;5117872;28;20035;-25
2023/07/06 09:20:31;;;;;;;6.20;1.95;;;19.00;99.90;;;;;;5117139;28;20481;-25
2023/07/06 09:22:57;;;;;;;3.25;1.30;;;18.90;99.90;;;;;;5116833;28;20052;-25
2023/07/06 09:25:28;;;;;;;8.55;1.95;;;18.90;99.90;;;;;;5116478;28;20047;-26
2023/07/06 09:27:57;;;;;;;6.28;1.95;;;18.90;99.90;;;;;;5116478;28;20047;-25
2023/07/06 09:30:31;;;;;;;6.63;1.80;;;19.30;99.90;;;;;;5118519;28;20382;-25
2023/07/06 09:33:06;;;;;;;5.85;1.35;;;19.90;99.90;;;;;;5118427;28;20087;-26
2023/07/06 09:35:36;;;;;;;4.47;1.55;;;20.30;99.90;;;;;;5117613;28;20044;-26
2023/07/06 09:38:06;;;;;;;5.70;2.03;;;20.60;79.90;;;;;;5117441;28;20047;-26
2023/07/06 09:40:32;;;;;;;3.47;1.63;;;20.80;1.00;;;;;;5118073;28;20057;-26
2023/07/06 09:42:57;;;;;;;4.78;1.05;;;21.30;1.00;;;;;;5116161;28;20122;-26
2023/07/06 09:45:26;;;;;;;5.18;1.42;;;21.60;99.90;;;;;;5099427;28;20035;-26
2023/07/06 09:48:07;;;;;;;2.30;1.13;;;21.10;99.90;;;;;;5117496;28;20083;-26
2023/07/06 09:50:40;;;;;;;3.10;1.42;;;21.00;99.90;;;;;;5116370;28;20059;-26
2023/07/06 09:53:11;;;;;;;6.70;1.75;;;21.60;99.90;;;;;;5117771;28;20051;-26
2023/07/06 09:55:37;;;;;;;3.38;1.50;;;22.00;99.90;;;;;;5117114;28;20485;-26
2023/07/06 09:58:07;;;;;;;5.85;1.02;;;21.80;99.90;;;;;;5117067;28;20085;-26
2023/07/06 10:00:39;;;;;;;2.53;0.80;;;21.50;84.00;;;;;;5116325;28;20112;-25
2023/07/06 10:03:11;;;;;;;2.08;1.02;;;21.50;1.00;;;;;;5117944;28;20044;-26
2023/07/06 10:05:49;;;;;;;2.17;1.20;;;21.70;1.00;;;;;;5117258;28;20051;-26
2023/07/06 10:08:44;;;;;;;4.50;0.93;;;21.50;1.00;;;;;;5117429;28;20130;-26
2023/07/06 10:11:28;;;;;;;1.35;0.80;;;20.80;1.00;;;;;;5115208;28;20058;-26
2023/07/06 10:13:58;;;;;;;2.20;0.88;;;20.40;1.00;;;;;;5116892;28;20092;-25
2023/07/06 10:16:36;;;;;;;3.63;1.20;;;21.00;16.60;;;;;;5116045;28;20052;-26
2023/07/06 10:19:10;;;;;;;5.78;0.90;;;21.60;1.00;;;;;;5116676;28;20130;-25
2023/07/06 10:21:54;;;;;;;2.38;0.98;;;22.50;1.00;;;;;;5115607;28;20130;-26
2023/07/06 10:24:38;;;;;;;2.50;1.10;;;22.80;99.90;;;;;;5082479;28;20079;-25
2023/07/06 10:27:10;;;;;;;2.05;1.00;;;22.80;99.90;;;;;;5115342;28;20462;-25
2023/07/06 10:29:41;;;;;;;2.80;0.88;;;22.50;99.90;;;;;;5116549;28;20125;-25
2023/07/06 10:32:19;;;;;;;3.83;1.45;;;23.10;99.90;;;;;;5117139;28;20078;-26
2023/07/06 10:34:53;;;;;;;4.28;1.27;;;23.40;99.90;;;;;;5116446;28;20043;-26
2023/07/06 10:37:22;;;;;;;4.18;0.90;;;23.80;99.90;;;;;;5116488;28;20504;-26
2023/07/06 10:39:53;;;;;;;2.22;1.17;;;23.80;99.90;;;;;;5116306;28;20054;-26
2023/07/06 10:42:33;;;;;;;5.68;1.20;;;24.00;99.90;;;;;;5116275;28;20055;-25
2023/07/06 10:45:02;;;;;;;5.00;1.15;;;24.10;99.90;;;;;;5115265;28;20046;-26
2023/07/06 10:47:28;;;;;;;3.05;0.80;;;24.00;99.90;;;;;;5116214;28;20043;-27
2023/07/06 10:50:30;;;;;;;2.63;0.90;;;24.00;99.90;;;;;;5116394;28;20043;-25
2023/07/06 10:52:57;;;;;;;4.15;1.40;;;24.40;99.90;;;;;;5115746;28;20070;-25
2023/07/06 10:55:26;;;;;;;3.25;1.15;;;24.30;99.90;;;;;;5114902;28;20055;-26
2023/07/06 10:58:25;;;;;;;2.78;1.08;;;24.50;99.90;;;;;;5116403;27;20035;-26
2023/07/06 11:00:52;;;;;;;4.28;1.30;;;24.20;99.90;;;;;;5115641;28;20099;-25
2023/07/06 11:03:31;;;;;;;6.40;1.15;;;23.20;99.90;;;;;;5098519;28;20140;-25
2023/07/06 11:06:06;;;;;;;4.25;1.25;;;22.20;99.90;;;;;;5117505;27;20104;-25
2023/07/06 11:09:09;;;;;;;1.67;0.77;;;21.40;99.90;;;;;;5136393;27;20507;-25
2023/07/06 11:11:38;;;;;;;2.75;1.00;;;20.70;63.10;;;;;;5136993;27;20050;-25
2023/07/06 11:14:18;;;;;;;3.47;1.40;;;20.30;99.90;;;;;;5136082;27;20492;-25
2023/07/06 11:16:55;;;;;;;2.58;1.00;;;20.10;99.90;;;;;;5136054;27;20047;-24
2023/07/06 11:19:28;;;;;;;5.30;1.38;;;19.90;99.90;;;;;;5118552;27;20078;-25
2023/07/06 11:21:59;;;;;;;2.28;1.35;;;19.80;1.00;;;;;;5136909;27;20043;-24
2023/07/06 11:24:44;;;;;;;4.20;1.30;;;20.20;99.90;;;;;;5136332;27;20047;-24
2023/07/06 11:27:35;;;;;;;4.90;1.65;;;20.30;19.70;;;;;;5117916;27;20047;-25
2023/07/06 11:30:10;;;;;;;3.58;1.70;;;20.60;99.90;;;;;;5117570;27;20104;-25
2023/07/06 11:32:43;;;;;;;3.65;1.52;;;20.70;99.90;;;;;;5135826;27;20066;-24
2023/07/06 11:35:16;;;;;;;;;;;20.50;99.90;;;;;;5118140;27;20188;-24
2023/07/06 11:38:03;;;;;;;5.75;1.30;;;20.40;99.90;;;;;;5136587;27;19919;-25
2023/07/06 11:40:42;;;;;;;2.33;0.90;;;20.30;1.00;;;;;;5135680;27;20047;-25
2023/07/06 11:43:44;;;;;;;2.63;1.10;;;20.70;99.90;;;;;;5135376;27;20481;-25
2023/07/06 11:46:22;;;;;;;3.88;0.82;;;21.50;47.50;;;;;;5135623;27;20125;-24
2023/07/06 11:49:25;;;;;;;5.13;0.90;;;21.80;99.90;;;;;;5100469;27;20039;-25
2023/07/06 11:51:51;;;;;;;3.42;1.10;;;22.20;1.00;;;;;;5135504;27;20055;-26
2023/07/06 11:54:40;;;;;;;3.35;0.90;;;22.40;1.00;;;;;;5117378;27;20419;-25
2023/07/06 11:57:42;;;;;;;3.47;1.08;;;22.70;1.00;;;;;;5086985;27;20050;-25
2023/07/06 12:03:05;;;;;;;5.45;1.20;;;21.60;1.00;;;;;;5135883;27;20438;-24
2023/07/06 12:05:58;;;;;;;3.13;1.40;;;21.70;1.00;;;;;;5135212;27;20071;-25
2023/07/06 12:08:27;;;;;;;2.83;1.42;;;21.70;39.30;;;;;;5131136;27;20047;-24
2023/07/06 12:10:59;;;;;;;5.35;1.38;;;21.60;99.90;;;;;;5135580;27;20107;-24
2023/07/06 12:13:26;;;;;;;4.25;1.30;;;22.00;71.50;;;;;;5135342;27;20047;-24
2023/07/06 12:16:24;;;;;;;3.30;1.42;;;21.80;99.90;;;;;;5134937;27;20043;-24
2023/07/06 12:19:04;;;;;;;3.25;1.50;;;21.60;58.40;;;;;;5062058;27;20047;-24
2023/07/06 12:21:31;;;;;;;3.70;1.17;;;21.40;89.60;;;;;;5117158;27;20082;-24
2023/07/06 12:23:59;;;;;;;3.05;1.02;;;21.50;99.90;;;;;;5134873;27;20046;-24
2023/07/06 12:26:29;;;;;;;3.97;1.08;;;21.30;70.10;;;;;;5116547;27;20054;-24
2023/07/06 12:28:59;;;;;;;2.30;0.63;;;21.30;98.20;;;;;;5135131;27;20175;-24
2023/07/06 12:31:27;;;;;;;5.03;1.15;;;21.40;5.30;;;;;;5135108;27;20134;-24
2023/07/06 12:33:57;;;;;;;4.35;1.42;;;21.10;1.00;;;;;;5098903;27;20564;-24
2023/07/06 12:36:33;;;;;;;2.00;0.73;;;21.20;99.60;;;;;;5117302;27;20043;-24
2023/07/06 12:39:01;;;;;;;2.53;0.80;;;21.80;1.00;;;;;;5134978;27;20066;-25
2023/07/06 12:41:33;;;;;;;7.45;1.20;;;21.50;1.00;;;;;;5134763;27;20047;-24
2023/07/06 12:43:59;;;;;;;2.53;1.05;;;21.20;1.00;;;;;;5116912;28;20104;-24
2023/07/06 12:46:31;;;;;;;4.22;1.13;;;21.50;1.00;;;;;;5132020;28;20526;-24
2023/07/06 12:49:02;;;;;;;2.20;0.88;;;22.20;1.00;;;;;;5116326;28;20404;-24
2023/07/06 12:51:28;;;;;;;2.80;0.70;;;22.10;1.00;;;;;;5134039;28;20550;-24
2023/07/06 12:53:57;;;;;;;1.48;0.63;;;22.60;1.00;;;;;;5131161;28;20073;-25
2023/07/06 12:56:25;;;;;;;1.80;0.57;;;23.10;1.00;;;;;;5117070;28;20140;-24
2023/07/06 12:59:01;;;;;;;3.15;0.60;;;23.10;1.00;;;;;;5112540;28;20048;-25
2023/07/06 13:01:36;;;;;;;1.75;0.55;;;22.70;99.90;;;;;;5112986;28;20051;-24